createdAt,value
2023-04-25T00:00:20.091Z,1001.00
2023-04-25T00:01:20.098Z,997.00
2023-04-25T00:02:20.204Z,995.00
2023-04-25T00:03:20.323Z,994.00
2023-04-25T00:04:20.434Z,991.00
2023-04-25T00:05:20.385Z,977.00
2023-04-25T00:06:20.274Z,983.00
2023-04-25T00:07:20.346Z,986.00
2023-04-25T00:08:20.382Z,984.00
2023-04-25T00:09:20.411Z,978.00
2023-04-25T00:10:20.489Z,976.00
2023-04-25T00:11:20.500Z,971.00
2023-04-25T00:12:20.562Z,971.00
2023-04-25T00:13:20.624Z,977.00
2023-04-25T00:14:20.655Z,972.00
2023-04-25T00:15:20.753Z,964.00
2023-04-25T00:16:20.814Z,969.00
2023-04-25T00:17:20.874Z,971.00
2023-04-25T00:18:20.909Z,965.00
2023-04-25T00:19:20.957Z,964.00
2023-04-25T00:20:21.030Z,957.00
2023-04-25T00:21:21.065Z,949.00
2023-04-25T00:22:21.068Z,950.00
2023-04-25T00:23:21.050Z,951.00
2023-04-25T00:24:21.088Z,954.00
2023-04-25T00:25:21.065Z,950.00
2023-04-25T00:26:21.052Z,961.00
2023-04-25T00:27:21.046Z,951.00
2023-04-25T00:28:21.040Z,946.00
2023-04-25T00:29:21.036Z,944.00
2023-04-25T00:30:21.034Z,947.00
2023-04-25T00:31:21.112Z,957.00
2023-04-25T00:32:21.065Z,949.00
2023-04-25T00:33:21.103Z,936.00
2023-04-25T00:34:21.126Z,936.00
2023-04-25T00:35:21.156Z,946.00
2023-04-25T00:36:21.155Z,947.00
2023-04-25T00:37:21.134Z,947.00
2023-04-25T00:38:21.134Z,942.00
2023-04-25T00:39:21.118Z,938.00
2023-04-25T00:40:21.116Z,933.00
2023-04-25T00:41:21.109Z,936.00
2023-04-25T00:42:21.095Z,923.00
2023-04-25T00:43:21.105Z,923.00
2023-04-25T00:44:21.095Z,918.00
2023-04-25T00:45:21.091Z,922.00
2023-04-25T00:46:21.177Z,911.00
2023-04-25T00:47:21.163Z,916.00
2023-04-25T00:48:21.130Z,919.00
2023-04-25T00:49:21.165Z,922.00
2023-04-25T00:50:21.212Z,926.00
2023-04-25T00:51:21.261Z,914.00
2023-04-25T00:52:21.269Z,904.00
2023-04-25T00:53:21.315Z,910.00
2023-04-25T00:54:21.377Z,917.00
2023-04-25T00:55:21.460Z,898.00
2023-04-25T00:56:21.506Z,899.00
2023-04-25T00:57:21.588Z,897.00
2023-04-25T00:58:21.647Z,905.00
2023-04-25T00:59:21.711Z,906.00
2023-04-25T01:00:21.779Z,906.00
2023-04-25T01:01:21.848Z,901.00
2023-04-25T01:02:22.013Z,902.00
2023-04-25T01:03:22.117Z,894.00
2023-04-25T01:04:22.094Z,885.00
2023-04-25T01:05:22.028Z,887.00
2023-04-25T01:06:22.104Z,885.00
2023-04-25T01:07:22.157Z,877.00
2023-04-25T01:08:22.212Z,879.00
2023-04-25T01:09:22.268Z,887.00
2023-04-25T01:10:22.327Z,898.00
2023-04-25T01:11:22.409Z,886.00
2023-04-25T01:12:22.471Z,879.00
2023-04-25T01:13:22.500Z,878.00
2023-04-25T01:14:22.575Z,871.00
2023-04-25T01:15:22.657Z,877.00
2023-04-25T01:16:22.780Z,865.00
2023-04-25T01:17:22.786Z,867.00
2023-04-25T01:18:22.859Z,872.00
2023-04-25T01:19:22.911Z,866.00
2023-04-25T01:20:22.995Z,871.00
2023-04-25T01:21:23.059Z,861.00
2023-04-25T01:22:23.117Z,856.00
2023-04-25T01:23:23.174Z,856.00
2023-04-25T01:24:23.216Z,863.00
2023-04-25T01:25:23.277Z,854.00
2023-04-25T01:26:23.346Z,863.00
2023-04-25T01:27:23.399Z,861.00
2023-04-25T01:28:23.474Z,853.00
2023-04-25T01:29:23.524Z,854.00
2023-04-25T01:30:23.584Z,849.00
2023-04-25T01:31:23.693Z,852.00
2023-04-25T01:32:23.751Z,833.00
2023-04-25T01:33:23.844Z,839.00
2023-04-25T01:34:23.831Z,848.00
2023-04-25T01:35:23.898Z,839.00
2023-04-25T01:36:23.962Z,840.00
2023-04-25T01:37:24.010Z,822.00
2023-04-25T01:38:24.080Z,832.00
2023-04-25T01:39:24.142Z,824.00
2023-04-25T01:40:24.231Z,836.00
2023-04-25T01:41:24.474Z,839.00
2023-04-25T01:42:24.345Z,840.00
2023-04-25T01:43:24.385Z,838.00
2023-04-25T01:44:24.402Z,821.00
2023-04-25T01:45:24.466Z,834.00
2023-04-25T01:46:24.507Z,825.00
2023-04-25T01:47:24.600Z,827.00
2023-04-25T01:48:24.629Z,816.00
2023-04-25T01:49:24.708Z,824.00
2023-04-25T01:50:24.733Z,811.00
2023-04-25T01:51:24.826Z,817.00
2023-04-25T01:52:24.853Z,830.00
2023-04-25T01:53:24.932Z,808.00
2023-04-25T01:54:24.971Z,816.00
2023-04-25T01:55:25.067Z,816.00
2023-04-25T01:56:25.116Z,813.00
2023-04-25T01:57:25.142Z,797.00
2023-04-25T01:58:25.163Z,796.00
2023-04-25T01:59:25.213Z,802.00
2023-04-25T02:00:25.252Z,795.00
2023-04-25T02:01:25.382Z,796.00
2023-04-25T02:02:25.399Z,793.00
2023-04-25T02:03:25.493Z,801.00
2023-04-25T02:04:25.528Z,784.00
2023-04-25T02:05:25.487Z,798.00
2023-04-25T02:06:25.535Z,785.00
2023-04-25T02:07:25.604Z,783.00
2023-04-25T02:08:25.643Z,776.00
2023-04-25T02:09:25.684Z,790.00
2023-04-25T02:10:25.767Z,775.00
2023-04-25T02:11:25.810Z,782.00
2023-04-25T02:12:25.868Z,786.00
2023-04-25T02:13:25.931Z,791.00
2023-04-25T02:14:25.935Z,780.00
2023-04-25T02:15:25.955Z,790.00
2023-04-25T02:16:26.010Z,790.00
2023-04-25T02:17:25.950Z,791.00
2023-04-25T02:18:25.949Z,771.00
2023-04-25T02:19:25.958Z,782.00
2023-04-25T02:20:25.953Z,777.00
2023-04-25T02:21:25.938Z,774.00
2023-04-25T02:22:25.931Z,766.00
2023-04-25T02:23:25.944Z,766.00
2023-04-25T02:24:25.920Z,762.00
2023-04-25T02:25:25.937Z,776.00
2023-04-25T02:26:25.928Z,760.00
2023-04-25T02:27:25.940Z,772.00
2023-04-25T02:28:25.983Z,770.00
2023-04-25T02:29:26.051Z,749.00
2023-04-25T02:30:26.089Z,751.00
2023-04-25T02:31:26.178Z,756.00
2023-04-25T02:32:26.258Z,755.00
2023-04-25T02:33:26.242Z,747.00
2023-04-25T02:34:26.293Z,767.00
2023-04-25T02:35:26.369Z,748.00
2023-04-25T02:36:26.434Z,748.00
2023-04-25T02:37:26.441Z,748.00
2023-04-25T02:38:26.438Z,750.00
2023-04-25T02:39:26.428Z,748.00
2023-04-25T02:40:26.434Z,739.00
2023-04-25T02:41:26.447Z,745.00
2023-04-25T02:42:26.422Z,745.00
2023-04-25T02:43:26.420Z,738.00
2023-04-25T02:44:26.431Z,745.00
2023-04-25T02:45:26.491Z,732.00
2023-04-25T02:46:38.229Z,703.00
2023-04-25T02:47:27.605Z,644.00
2023-04-25T02:48:26.561Z,590.00
2023-04-25T02:49:26.551Z,549.00
2023-04-25T02:50:26.555Z,520.00
2023-04-25T02:51:26.568Z,491.00
2023-04-25T02:52:26.569Z,497.00
2023-04-25T02:53:26.565Z,501.00
2023-04-25T02:54:26.567Z,500.00
2023-04-25T02:55:28.292Z,500.00
2023-04-25T02:56:26.574Z,498.00
2023-04-25T02:57:26.592Z,500.00
2023-04-25T02:58:26.601Z,500.00
2023-04-25T02:59:26.674Z,502.00
2023-04-25T03:00:26.904Z,500.00
2023-04-25T03:01:26.912Z,501.00
2023-04-25T03:02:26.964Z,499.00
2023-04-25T03:03:27.089Z,500.00
2023-04-25T03:04:27.128Z,497.00
2023-04-25T03:05:27.161Z,500.00
2023-04-25T03:06:27.224Z,500.00
2023-04-25T03:07:27.280Z,499.00
2023-04-25T03:08:27.343Z,500.00
2023-04-25T03:09:27.376Z,500.00
2023-04-25T03:10:27.436Z,500.00
2023-04-25T03:11:27.517Z,501.00
2023-04-25T03:12:27.558Z,500.00
2023-04-25T03:13:27.636Z,501.00
2023-04-25T03:14:27.663Z,500.00
2023-04-25T03:15:27.705Z,505.00
2023-04-25T03:16:27.826Z,499.00
2023-04-25T03:17:27.806Z,500.00
2023-04-25T03:18:27.798Z,500.00
2023-04-25T03:19:27.848Z,501.00
2023-04-25T03:20:27.882Z,500.00
2023-04-25T03:21:27.924Z,506.00
2023-04-25T03:22:27.974Z,502.00
2023-04-25T03:23:28.021Z,504.00
2023-04-25T03:24:28.038Z,503.00
2023-04-25T03:25:28.082Z,504.00
2023-04-25T03:26:28.117Z,500.00
2023-04-25T03:27:28.151Z,502.00
2023-04-25T03:28:28.175Z,504.00
2023-04-25T03:29:28.213Z,500.00
2023-04-25T03:30:28.281Z,501.00
2023-04-25T03:31:28.361Z,500.00
2023-04-25T03:32:28.445Z,505.00
2023-04-25T03:33:28.381Z,500.00
2023-04-25T03:34:28.416Z,505.00
2023-04-25T03:35:28.465Z,502.00
2023-04-25T03:36:28.501Z,501.00
2023-04-25T03:37:28.552Z,504.00
2023-04-25T03:38:28.578Z,503.00
2023-04-25T03:39:28.610Z,500.00
2023-04-25T03:40:28.663Z,505.00
2023-04-25T03:41:28.700Z,501.00
2023-04-25T03:42:28.740Z,499.00
2023-04-25T03:43:28.782Z,500.00
2023-04-25T03:44:28.830Z,500.00
2023-04-25T03:45:28.854Z,503.00
2023-04-25T03:46:28.962Z,513.00
2023-04-25T03:47:28.947Z,509.00
2023-04-25T03:48:29.018Z,500.00
2023-04-25T03:49:29.062Z,509.00
2023-04-25T03:50:29.095Z,512.00
2023-04-25T03:51:29.152Z,515.00
2023-04-25T03:52:29.250Z,514.00
2023-04-25T03:53:29.246Z,507.00
2023-04-25T03:54:29.296Z,507.00
2023-04-25T03:55:29.355Z,513.00
2023-04-25T03:56:29.384Z,508.00
2023-04-25T03:57:29.443Z,509.00
2023-04-25T03:58:29.476Z,505.00
2023-04-25T03:59:29.524Z,501.00
2023-04-25T04:00:29.570Z,503.00
2023-04-25T04:01:29.643Z,502.00
2023-04-25T04:02:29.817Z,507.00
2023-04-25T04:03:30.036Z,508.00
2023-04-25T04:04:30.065Z,503.00
2023-04-25T04:05:29.953Z,509.00
2023-04-25T04:06:29.912Z,508.00
2023-04-25T04:07:29.985Z,515.00
2023-04-25T04:08:30.025Z,515.00
2023-04-25T04:09:30.091Z,520.00
2023-04-25T04:10:30.143Z,526.00
2023-04-25T04:11:30.188Z,523.00
2023-04-25T04:12:30.262Z,526.00
2023-04-25T04:13:30.327Z,528.00
2023-04-25T04:14:30.385Z,532.00
2023-04-25T04:15:30.452Z,534.00
2023-04-25T04:16:30.930Z,531.00
2023-04-25T04:17:30.576Z,531.00
2023-04-25T04:18:30.571Z,533.00
2023-04-25T04:19:30.639Z,534.00
2023-04-25T04:20:30.696Z,530.00
2023-04-25T04:21:30.767Z,542.00
2023-04-25T04:22:30.834Z,542.00
2023-04-25T04:23:30.869Z,538.00
2023-04-25T04:24:30.926Z,531.00
2023-04-25T04:25:30.988Z,533.00
2023-04-25T04:26:31.028Z,533.00
2023-04-25T04:27:31.075Z,539.00
2023-04-25T04:28:31.157Z,530.00
2023-04-25T04:29:31.169Z,530.00
2023-04-25T04:30:31.187Z,530.00
2023-04-25T04:31:31.294Z,529.00
2023-04-25T04:32:31.260Z,534.00
2023-04-25T04:33:31.262Z,543.00
2023-04-25T04:34:31.292Z,533.00
2023-04-25T04:35:31.350Z,538.00
2023-04-25T04:36:31.371Z,547.00
2023-04-25T04:37:31.396Z,547.00
2023-04-25T04:38:31.409Z,541.00
2023-04-25T04:39:31.449Z,539.00
2023-04-25T04:40:31.491Z,537.00
2023-04-25T04:41:31.503Z,525.00
2023-04-25T04:42:31.549Z,523.00
2023-04-25T04:43:31.586Z,502.00
2023-04-25T04:44:31.616Z,506.00
2023-04-25T04:45:31.648Z,501.00
2023-04-25T04:46:31.770Z,500.00
2023-04-25T04:47:31.817Z,497.00
2023-04-25T04:48:31.788Z,504.00
2023-04-25T04:49:31.851Z,502.00
2023-04-25T04:50:31.903Z,496.00
2023-04-25T04:51:31.971Z,500.00
2023-04-25T04:52:32.056Z,500.00
2023-04-25T04:53:32.112Z,502.00
2023-04-25T04:54:32.175Z,501.00
2023-04-25T04:55:32.241Z,505.00
2023-04-25T04:56:32.315Z,500.00
2023-04-25T04:57:32.386Z,504.00
2023-04-25T04:58:32.439Z,504.00
2023-04-25T04:59:32.511Z,503.00
2023-04-25T05:00:32.607Z,505.00
2023-04-25T05:01:32.640Z,500.00
2023-04-25T05:02:32.811Z,502.00
2023-04-25T05:03:32.972Z,502.00
2023-04-25T05:04:32.933Z,501.00
2023-04-25T05:05:32.892Z,501.00
2023-04-25T05:06:32.928Z,501.00
2023-04-25T05:07:32.962Z,500.00
2023-04-25T05:08:32.962Z,500.00
2023-04-25T05:09:32.998Z,495.00
2023-04-25T05:10:33.022Z,501.00
2023-04-25T05:11:33.069Z,500.00
2023-04-25T05:12:34.065Z,500.00
2023-04-25T05:13:33.110Z,503.00
2023-04-25T05:14:33.145Z,504.00
2023-04-25T05:15:33.158Z,501.00
2023-04-25T05:16:33.260Z,502.00
2023-04-25T05:17:33.269Z,502.00
2023-04-25T05:18:33.263Z,501.00
2023-04-25T05:19:33.318Z,494.00
2023-04-25T05:20:33.326Z,494.00
2023-04-25T05:21:33.350Z,493.00
2023-04-25T05:22:33.402Z,502.00
2023-04-25T05:23:33.561Z,504.00
2023-04-25T05:24:33.434Z,514.00
2023-04-25T05:25:33.476Z,536.00
2023-04-25T05:26:33.511Z,572.00
2023-04-25T05:27:33.567Z,587.00
2023-04-25T05:28:33.564Z,596.00
2023-04-25T05:29:33.597Z,614.00
2023-04-25T05:30:33.618Z,653.00
2023-04-25T05:31:33.685Z,720.00
2023-04-25T05:32:33.712Z,756.00
2023-04-25T05:33:33.681Z,831.00
2023-04-25T05:34:33.721Z,858.00
2023-04-25T05:35:33.789Z,912.00
2023-04-25T05:36:33.765Z,986.00
2023-04-25T05:37:33.879Z,1008.00
2023-04-25T05:38:34.958Z,1069.00
2023-04-25T05:39:33.813Z,1078.00
2023-04-25T05:40:33.898Z,1115.00
2023-04-25T05:41:33.978Z,1140.00
2023-04-25T05:42:34.025Z,1200.00
2023-04-25T05:43:34.035Z,1202.00
2023-04-25T05:44:34.094Z,1208.00
2023-04-25T05:45:34.105Z,1221.00
2023-04-25T05:46:34.308Z,1232.00
2023-04-25T05:47:34.093Z,1300.00
2023-04-25T05:48:34.295Z,1327.00
2023-04-25T05:49:34.141Z,1369.00
2023-04-25T05:50:34.276Z,1401.00
2023-04-25T05:51:34.106Z,1459.00
2023-04-25T05:52:34.110Z,1510.00
2023-04-25T05:53:34.111Z,1529.00
2023-04-25T05:54:34.101Z,1599.00
2023-04-25T05:55:34.110Z,1630.00
2023-04-25T05:56:34.126Z,1717.00
2023-04-25T05:57:34.130Z,1757.00
2023-04-25T05:58:34.147Z,1805.00
2023-04-25T05:59:34.133Z,1872.00
2023-04-25T06:00:34.147Z,1911.00
2023-04-25T06:01:34.150Z,1951.00
2023-04-25T06:02:34.372Z,1990.00
2023-04-25T06:03:34.466Z,2034.00
2023-04-25T06:04:34.802Z,2070.00
2023-04-25T06:05:34.295Z,2115.00
2023-04-25T06:06:34.234Z,2150.00
2023-04-25T06:07:34.258Z,2175.00
2023-04-25T06:08:34.248Z,2220.00
2023-04-25T06:09:34.294Z,2236.00
2023-04-25T06:10:34.335Z,2238.00
2023-04-25T06:11:34.299Z,2250.00
2023-04-25T06:12:34.343Z,2269.00
2023-04-25T06:13:34.321Z,2315.00
2023-04-25T06:14:34.299Z,2371.00
2023-04-25T06:15:34.353Z,2409.00
2023-04-25T06:16:34.354Z,2438.00
2023-04-25T06:17:34.295Z,2488.00
2023-04-25T06:18:34.313Z,2490.00
2023-04-25T06:19:34.265Z,2531.00
2023-04-25T06:20:34.285Z,2537.00
2023-04-25T06:21:34.291Z,2574.00
2023-04-25T06:22:34.258Z,2597.00
2023-04-25T06:23:34.240Z,2610.00
2023-04-25T06:24:34.250Z,2626.00
2023-04-25T06:25:34.216Z,2663.00
2023-04-25T06:26:34.264Z,2664.00
2023-04-25T06:27:34.235Z,2664.00
2023-04-25T06:28:34.216Z,2705.00
2023-04-25T06:29:34.277Z,2730.00
2023-04-25T06:30:34.241Z,2746.00
2023-04-25T06:31:34.212Z,2740.00
2023-04-25T06:32:34.216Z,2747.00
2023-04-25T06:33:34.202Z,2775.00
2023-04-25T06:34:34.187Z,2771.00
2023-04-25T06:35:34.194Z,2782.00
2023-04-25T06:36:34.283Z,2801.00
2023-04-25T06:37:34.391Z,2829.00
2023-04-25T06:38:34.390Z,2837.00
2023-04-25T06:39:34.426Z,2848.00
2023-04-25T06:40:34.496Z,2851.00
2023-04-25T06:41:34.565Z,2884.00
2023-04-25T06:42:34.588Z,2885.00
2023-04-25T06:43:34.583Z,2890.00
2023-04-25T06:44:34.600Z,2901.00
2023-04-25T06:45:34.530Z,2885.00
2023-04-25T06:46:34.823Z,2802.00
2023-04-25T06:47:34.700Z,2597.00
2023-04-25T06:48:34.512Z,2337.00
2023-04-25T06:49:34.519Z,2167.00
2023-04-25T06:50:34.525Z,1939.00
2023-04-25T06:51:34.528Z,1753.00
2023-04-25T06:52:34.574Z,1554.00
2023-04-25T06:53:34.655Z,1406.00
2023-04-25T06:54:34.553Z,1286.00
2023-04-25T06:55:34.549Z,1158.00
2023-04-25T06:56:34.563Z,998.00
2023-04-25T06:57:34.572Z,876.00
2023-04-25T06:58:34.594Z,733.00
2023-04-25T06:59:34.581Z,643.00
2023-04-25T07:00:34.677Z,615.00
2023-04-25T07:01:34.589Z,595.00
2023-04-25T07:02:34.680Z,559.00
2023-04-25T07:03:34.772Z,526.00
2023-04-25T07:04:34.789Z,517.00
2023-04-25T07:05:34.514Z,501.00
2023-04-25T07:06:34.496Z,508.00
2023-04-25T07:07:34.472Z,500.00
2023-04-25T07:08:34.491Z,500.00
2023-04-25T07:09:34.402Z,500.00
2023-04-25T07:10:34.472Z,507.00
2023-04-25T07:11:34.410Z,504.00
2023-04-25T07:12:34.440Z,505.00
2023-04-25T07:13:34.440Z,506.00
2023-04-25T07:14:34.546Z,511.00
2023-04-25T07:15:34.580Z,503.00
2023-04-25T07:16:34.664Z,502.00
2023-04-25T07:17:34.792Z,510.00
2023-04-25T07:18:34.675Z,511.00
2023-04-25T07:19:34.722Z,513.00
2023-04-25T07:20:34.688Z,519.00
2023-04-25T07:21:34.719Z,535.00
2023-04-25T07:22:34.701Z,547.00
2023-04-25T07:23:34.714Z,554.00
2023-04-25T07:24:34.715Z,549.00
2023-04-25T07:25:34.687Z,553.00
2023-04-25T07:26:34.703Z,570.00
2023-04-25T07:27:34.700Z,565.00
2023-04-25T07:28:34.708Z,559.00
2023-04-25T07:29:34.684Z,569.00
2023-04-25T07:30:34.688Z,552.00
2023-04-25T07:31:34.708Z,567.00
2023-04-25T07:32:34.782Z,567.00
2023-04-25T07:33:34.703Z,567.00
2023-04-25T07:34:34.727Z,568.00
2023-04-25T07:35:34.716Z,572.00
2023-04-25T07:36:34.689Z,572.00
2023-04-25T07:37:34.706Z,587.00
2023-04-25T07:38:34.739Z,608.00
2023-04-25T07:39:34.699Z,636.00
2023-04-25T07:40:34.716Z,709.00
2023-04-25T07:41:34.716Z,813.00
2023-04-25T07:42:34.713Z,816.00
2023-04-25T07:43:34.698Z,839.00
2023-04-25T07:44:34.681Z,892.00
2023-04-25T07:45:34.713Z,973.00
2023-04-25T07:46:34.712Z,1131.00
2023-04-25T07:47:34.733Z,1206.00
2023-04-25T07:48:34.715Z,1238.00
2023-04-25T07:49:34.670Z,1291.00
2023-04-25T07:50:34.667Z,1293.00
2023-04-25T07:51:34.673Z,1305.00
2023-04-25T07:52:34.667Z,1336.00
2023-04-25T07:53:34.702Z,1391.00
2023-04-25T07:54:34.668Z,1477.00
2023-04-25T07:55:34.672Z,1505.00
2023-04-25T07:56:45.447Z,1529.00
2023-04-25T07:57:35.673Z,1531.00
2023-04-25T07:58:34.661Z,1539.00
2023-04-25T07:59:34.662Z,1552.00
2023-04-25T08:00:34.670Z,1585.00
2023-04-25T08:01:34.639Z,1613.00
2023-04-25T08:02:34.732Z,1622.00
2023-04-25T08:03:34.891Z,1636.00
2023-04-25T08:04:34.848Z,1658.00
2023-04-25T08:05:34.702Z,1662.00
2023-04-25T08:06:34.805Z,1670.00
2023-04-25T08:07:34.622Z,1661.00
2023-04-25T08:08:34.615Z,1662.00
2023-04-25T08:09:34.588Z,1662.00
2023-04-25T08:10:34.586Z,1663.00
2023-04-25T08:11:34.601Z,1666.00
2023-04-25T08:12:34.568Z,1671.00
2023-04-25T08:13:34.584Z,1575.00
2023-04-25T08:14:34.621Z,1375.00
2023-04-25T08:15:34.728Z,1201.00
2023-04-25T08:16:34.689Z,1073.00
2023-04-25T08:17:34.772Z,932.00
2023-04-25T08:18:34.590Z,816.00
2023-04-25T08:19:34.631Z,693.00
2023-04-25T08:20:34.629Z,636.00
2023-04-25T08:21:34.675Z,594.00
2023-04-25T08:22:34.641Z,550.00
2023-04-25T08:23:34.647Z,525.00
2023-04-25T08:24:35.672Z,500.00
2023-04-25T08:25:34.655Z,499.00
2023-04-25T08:26:35.161Z,500.00
2023-04-25T08:27:34.672Z,500.00
2023-04-25T08:28:34.800Z,500.00
2023-04-25T08:29:34.813Z,498.00
2023-04-25T08:30:34.856Z,500.00
2023-04-25T08:31:34.955Z,508.00
2023-04-25T08:32:34.987Z,509.00
2023-04-25T08:33:34.924Z,515.00
2023-04-25T08:34:34.924Z,529.00
2023-04-25T08:35:34.975Z,556.00
2023-04-25T08:36:39.378Z,625.00
2023-04-25T08:37:35.933Z,513.00
2023-04-25T08:38:34.913Z,533.00
2023-04-25T08:39:34.959Z,583.00
2023-04-25T08:40:34.898Z,666.00
2023-04-25T08:41:34.972Z,958.00
2023-04-25T08:42:34.923Z,1050.00
2023-04-25T08:43:34.947Z,1124.00
2023-04-25T08:44:34.992Z,1236.00
2023-04-25T08:45:34.921Z,1317.00
2023-04-25T08:46:34.918Z,1362.00
2023-04-25T08:47:34.993Z,1424.00
2023-04-25T08:48:34.952Z,1472.00
2023-04-25T08:49:34.958Z,1527.00
2023-04-25T08:50:34.892Z,1574.00
2023-04-25T08:51:34.886Z,1641.00
2023-04-25T08:52:34.891Z,1692.00
2023-04-25T08:53:36.203Z,1722.00
2023-04-25T08:54:37.227Z,1741.00
2023-04-25T08:55:34.845Z,1775.00
2023-04-25T08:56:34.849Z,1814.00
2023-04-25T08:57:34.858Z,1852.00
2023-04-25T08:58:34.968Z,1893.00
2023-04-25T08:59:36.570Z,1918.00
2023-04-25T09:00:34.841Z,1920.00
2023-04-25T09:01:34.944Z,1928.00
2023-04-25T09:02:34.927Z,1945.00
2023-04-25T09:03:35.164Z,1992.00
2023-04-25T09:04:34.838Z,2058.00
2023-04-25T09:05:34.807Z,2085.00
2023-04-25T09:06:34.790Z,2100.00
2023-04-25T09:07:34.817Z,2084.00
2023-04-25T09:08:34.793Z,2112.00
2023-04-25T09:09:34.773Z,2113.00
2023-04-25T09:10:34.782Z,2122.00
2023-04-25T09:11:34.772Z,2122.00
2023-04-25T09:12:34.779Z,2104.00
2023-04-25T09:13:34.756Z,2074.00
2023-04-25T09:14:34.760Z,2055.00
2023-04-25T09:15:34.745Z,2061.00
2023-04-25T09:16:36.596Z,2031.00
2023-04-25T09:17:34.778Z,2031.00
2023-04-25T09:18:34.773Z,2024.00
2023-04-25T09:19:39.519Z,2027.00
2023-04-25T09:20:40.317Z,2013.00
2023-04-25T09:21:35.712Z,2031.00
2023-04-25T09:22:35.310Z,2029.00
2023-04-25T09:23:34.688Z,2006.00
2023-04-25T09:24:34.727Z,2013.00
2023-04-25T09:25:34.704Z,2011.00
2023-04-25T09:26:34.686Z,2021.00
2023-04-25T09:27:34.662Z,2007.00
2023-04-25T09:28:34.648Z,2018.00
2023-04-25T09:29:34.677Z,2059.00
2023-04-25T09:30:34.630Z,2083.00
2023-04-25T09:31:34.673Z,2085.00
2023-04-25T09:32:34.799Z,2093.00
2023-04-25T09:33:34.612Z,2112.00
2023-04-25T09:34:34.614Z,2145.00
2023-04-25T09:35:34.616Z,2195.00
2023-04-25T09:36:34.833Z,2209.00
2023-04-25T09:37:34.609Z,2233.00
2023-04-25T09:38:34.578Z,2255.00
2023-04-25T09:39:34.658Z,2253.00
2023-04-25T09:40:34.684Z,2263.00
2023-04-25T09:41:34.690Z,2284.00
2023-04-25T09:42:34.804Z,2297.00
2023-04-25T09:43:34.858Z,2275.00
2023-04-25T09:44:34.966Z,2303.00
2023-04-25T09:45:34.951Z,2265.00
2023-04-25T09:46:35.037Z,2191.00
2023-04-25T09:47:35.138Z,2099.00
2023-04-25T09:48:35.116Z,1949.00
2023-04-25T09:49:35.157Z,1574.00
2023-04-25T09:50:35.210Z,1326.00
2023-04-25T09:51:35.246Z,1129.00
2023-04-25T09:52:35.306Z,844.00
2023-04-25T09:53:35.354Z,659.00
2023-04-25T09:54:35.300Z,600.00
2023-04-25T09:55:35.310Z,539.00
2023-04-25T09:56:35.410Z,494.00
2023-04-25T09:57:35.372Z,491.00
2023-04-25T09:58:35.470Z,499.00
2023-04-25T09:59:35.432Z,504.00
2023-04-25T10:00:35.473Z,500.00
2023-04-25T10:01:35.533Z,500.00
2023-04-25T10:02:35.651Z,497.00
2023-04-25T10:03:35.907Z,501.00
2023-04-25T10:04:35.625Z,500.00
2023-04-25T10:05:35.580Z,500.00
2023-04-25T10:06:35.630Z,501.00
2023-04-25T10:07:35.691Z,500.00
2023-04-25T10:08:35.761Z,510.00
2023-04-25T10:09:35.745Z,500.00
2023-04-25T10:10:35.773Z,492.00
2023-04-25T10:11:35.819Z,512.00
2023-04-25T10:12:35.861Z,493.00
2023-04-25T10:13:35.933Z,499.00
2023-04-25T10:14:36.011Z,515.00
2023-04-25T10:15:37.557Z,510.00
2023-04-25T10:16:36.033Z,503.00
2023-04-25T10:17:36.096Z,511.00
2023-04-25T10:18:36.076Z,531.00
2023-04-25T10:19:36.073Z,543.00
2023-04-25T10:20:36.109Z,511.00
2023-04-25T10:21:36.084Z,513.00
2023-04-25T10:22:36.087Z,515.00
2023-04-25T10:23:36.168Z,516.00
2023-04-25T10:24:36.177Z,530.00
2023-04-25T10:25:36.155Z,541.00
2023-04-25T10:26:36.150Z,554.00
2023-04-25T10:27:36.181Z,580.00
2023-04-25T10:28:36.214Z,577.00
2023-04-25T10:29:36.260Z,582.00
2023-04-25T10:30:36.267Z,603.00
2023-04-25T10:31:36.353Z,603.00
2023-04-25T10:32:36.368Z,613.00
2023-04-25T10:33:36.431Z,612.00
2023-04-25T10:34:36.484Z,631.00
2023-04-25T10:35:36.535Z,637.00
2023-04-25T10:36:36.590Z,622.00
2023-04-25T10:37:37.848Z,644.00
2023-04-25T10:38:36.682Z,661.00
2023-04-25T10:39:36.724Z,692.00
2023-04-25T10:40:36.732Z,657.00
2023-04-25T10:41:36.761Z,672.00
2023-04-25T10:42:36.769Z,659.00
2023-04-25T10:43:36.720Z,654.00
2023-04-25T10:44:36.740Z,658.00
2023-04-25T10:45:36.719Z,703.00
2023-04-25T10:46:36.792Z,721.00
2023-04-25T10:47:36.736Z,738.00
2023-04-25T10:48:36.776Z,775.00
2023-04-25T10:49:36.777Z,799.00
2023-04-25T10:50:36.784Z,801.00
2023-04-25T10:51:54.533Z,808.00
2023-04-25T10:52:37.769Z,800.00
2023-04-25T10:53:36.789Z,807.00
2023-04-25T10:54:36.762Z,800.00
2023-04-25T10:55:36.781Z,814.00
2023-04-25T10:56:36.754Z,836.00
2023-04-25T10:57:36.764Z,877.00
2023-04-25T10:58:36.765Z,955.00
2023-04-25T10:59:36.791Z,1004.00
2023-04-25T11:00:53.125Z,1015.00
2023-04-25T11:01:37.822Z,1015.00
2023-04-25T11:02:36.925Z,993.00
2023-04-25T11:03:36.884Z,968.00
2023-04-25T11:04:37.705Z,999.00
2023-04-25T11:05:50.979Z,985.00
2023-04-25T11:06:37.981Z,1015.00
2023-04-25T11:07:36.954Z,1019.00
2023-04-25T11:08:36.953Z,1044.00
2023-04-25T11:09:37.069Z,1019.00
2023-04-25T11:10:36.970Z,1035.00
2023-04-25T11:11:36.955Z,1066.00
2023-04-25T11:12:36.958Z,1079.00
2023-04-25T11:13:36.988Z,1159.00
2023-04-25T11:14:36.990Z,1020.00
2023-04-25T11:15:37.017Z,1034.00
2023-04-25T11:16:37.107Z,1019.00
2023-04-25T11:17:37.143Z,1022.00
2023-04-25T11:18:36.992Z,1018.00
2023-04-25T11:19:36.968Z,1006.00
2023-04-25T11:20:36.986Z,982.00
2023-04-25T11:21:36.980Z,936.00
2023-04-25T11:22:36.990Z,938.00
2023-04-25T11:23:36.997Z,880.00
2023-04-25T11:24:37.003Z,848.00
2023-04-25T11:25:38.648Z,796.00
2023-04-25T11:26:37.022Z,798.00
2023-04-25T11:27:37.022Z,733.00
2023-04-25T11:28:37.074Z,678.00
2023-04-25T11:29:37.034Z,633.00
2023-04-25T11:30:37.042Z,609.00
2023-04-25T11:31:37.152Z,611.00
2023-04-25T11:32:37.167Z,598.00
2023-04-25T11:33:37.068Z,592.00
2023-04-25T11:34:37.082Z,609.00
2023-04-25T11:35:37.076Z,601.00
2023-04-25T11:36:37.083Z,611.00
2023-04-25T11:37:37.087Z,616.00
2023-04-25T11:38:37.094Z,607.00
2023-04-25T11:39:37.114Z,586.00
2023-04-25T11:40:37.139Z,577.00
2023-04-25T11:41:37.126Z,554.00
2023-04-25T11:42:37.134Z,528.00
2023-04-25T11:43:37.145Z,507.00
2023-04-25T11:44:37.195Z,500.00
2023-04-25T11:45:37.211Z,506.00
2023-04-25T11:46:37.213Z,500.00
2023-04-25T11:47:37.253Z,497.00
2023-04-25T11:48:37.221Z,503.00
2023-04-25T11:49:37.326Z,499.00
2023-04-25T11:50:37.341Z,500.00
2023-04-25T11:51:37.439Z,500.00
2023-04-25T11:52:37.445Z,503.00
2023-04-25T11:53:37.494Z,496.00
2023-04-25T11:54:37.525Z,500.00
2023-04-25T11:55:37.567Z,501.00
2023-04-25T11:56:37.587Z,500.00
2023-04-25T11:57:37.629Z,504.00
2023-04-25T11:58:37.700Z,519.00
2023-04-25T11:59:37.685Z,556.00
2023-04-25T12:00:37.701Z,686.00
2023-04-25T12:01:37.827Z,969.00
2023-04-25T12:02:37.937Z,1212.00
2023-04-25T12:03:38.125Z,1412.00
2023-04-25T12:04:38.284Z,1605.00
2023-04-25T12:05:38.130Z,1742.00
2023-04-25T12:06:38.055Z,1855.00
2023-04-25T12:07:38.053Z,1901.00
2023-04-25T12:08:38.100Z,1945.00
2023-04-25T12:09:38.112Z,2029.00
2023-04-25T12:10:38.121Z,2031.00
2023-04-25T12:11:38.859Z,2053.00
2023-04-25T12:12:38.111Z,2118.00
2023-04-25T12:13:38.128Z,2260.00
2023-04-25T12:14:38.115Z,2474.00
2023-04-25T12:15:38.172Z,2549.00
2023-04-25T12:16:38.154Z,2569.00
2023-04-25T12:17:38.134Z,2639.00
2023-04-25T12:18:38.129Z,2765.00
2023-04-25T12:19:38.191Z,2839.00
2023-04-25T12:20:38.329Z,2941.00
2023-04-25T12:21:46.886Z,3035.00